createdAt,value
2023-03-03T00:03:04.576Z,1.16
2023-03-03T00:08:06.651Z,1.11
2023-03-03T00:13:16.759Z,1.07
2023-03-03T00:18:36.125Z,1.05
2023-03-03T00:23:40.688Z,1.02
2023-03-03T00:28:52.903Z,1.00
2023-03-03T00:33:57.088Z,0.96
2023-03-03T00:39:38.037Z,0.91
2023-03-03T00:44:45.042Z,0.86
2023-03-03T00:50:07.104Z,0.81
2023-03-03T00:55:12.390Z,0.77
2023-03-03T01:00:15.578Z,0.71
2023-03-03T01:05:18.104Z,0.65
2023-03-03T01:10:20.037Z,0.60
2023-03-03T01:15:22.060Z,0.55
2023-03-03T01:20:23.992Z,0.51
2023-03-03T01:25:25.967Z,0.47
2023-03-03T01:30:28.586Z,0.38
2023-03-03T01:35:31.009Z,0.33
2023-03-03T01:40:32.935Z,0.30
2023-03-03T01:45:58.067Z,0.25
2023-03-03T01:51:09.786Z,0.18
2023-03-03T01:56:12.690Z,0.08
2023-03-03T02:01:20.623Z,-0.01
2023-03-03T02:06:30.660Z,-0.08
2023-03-03T02:11:34.940Z,-0.12
2023-03-03T02:16:36.883Z,-0.17
2023-03-03T02:21:38.872Z,-0.18
2023-03-03T02:26:42.201Z,-0.19
2023-03-03T02:31:45.285Z,-0.25
2023-03-03T02:36:47.374Z,-0.26
2023-03-03T02:42:23.824Z,-0.29
2023-03-03T02:47:29.034Z,-0.31
2023-03-03T02:52:31.003Z,-0.32
2023-03-03T02:57:33.007Z,-0.33
2023-03-03T03:02:35.097Z,-0.33
2023-03-03T03:07:38.088Z,-0.32
2023-03-03T03:12:40.890Z,-0.33
2023-03-03T03:17:44.331Z,-0.33
2023-03-03T03:22:47.725Z,-0.33
2023-03-03T03:27:49.800Z,-0.33
2023-03-03T03:32:51.996Z,-0.33
2023-03-03T03:37:54.322Z,-0.40
2023-03-03T03:42:56.924Z,-0.43
2023-03-03T03:47:59.093Z,-0.50
2023-03-03T03:53:01.694Z,-0.51
2023-03-03T03:58:05.330Z,-0.51
2023-03-03T04:03:08.858Z,-0.56
2023-03-03T04:08:11.538Z,-0.58
2023-03-03T04:13:13.704Z,-0.61
2023-03-03T04:18:15.784Z,-0.68
2023-03-03T04:23:21.196Z,-0.71
2023-03-03T04:28:25.229Z,-0.72
2023-03-03T04:33:27.472Z,-0.76
2023-03-03T04:38:29.940Z,-0.83
2023-03-03T04:43:32.053Z,-0.84
2023-03-03T04:48:35.429Z,-0.87
2023-03-03T04:53:38.413Z,-0.90
2023-03-03T04:58:41.181Z,-0.92
2023-03-03T05:03:43.299Z,-0.96
2023-03-03T05:08:46.789Z,-1.00
2023-03-03T05:13:48.714Z,-1.01
2023-03-03T05:18:50.655Z,-0.97
2023-03-03T05:23:52.761Z,-1.04
2023-03-03T05:28:54.741Z,-1.09
2023-03-03T05:33:56.712Z,-1.10
2023-03-03T05:38:58.705Z,-1.00
2023-03-03T05:44:00.554Z,-1.06
2023-03-03T05:49:02.517Z,-1.06
2023-03-03T05:54:04.522Z,-1.12
2023-03-03T05:59:06.478Z,-1.13
2023-03-03T06:04:08.782Z,-1.23
2023-03-03T06:09:10.712Z,-1.30
2023-03-03T06:14:12.660Z,-1.32
2023-03-03T06:19:15.211Z,-1.27
2023-03-03T06:24:17.235Z,-1.22
2023-03-03T06:29:19.167Z,-1.19
2023-03-03T06:34:21.349Z,-1.05
2023-03-03T06:39:23.252Z,-0.97
2023-03-03T06:44:27.666Z,-0.97
2023-03-03T06:49:30.551Z,-1.03
2023-03-03T06:54:32.699Z,-1.00
2023-03-03T06:59:34.765Z,-1.00
2023-03-03T07:04:36.835Z,-0.99
2023-03-03T07:09:38.778Z,-0.87
2023-03-03T07:14:47.342Z,-0.86
2023-03-03T07:19:50.098Z,-0.79
2023-03-03T07:24:54.703Z,-0.62
2023-03-03T07:30:27.954Z,-0.52
2023-03-03T07:35:39.463Z,-0.47
2023-03-03T07:40:56.706Z,-0.42
2023-03-03T07:46:11.549Z,-0.30
2023-03-03T07:51:22.600Z,-0.01
2023-03-03T07:56:35.338Z,0.19
2023-03-03T08:01:43.760Z,0.26
2023-03-03T08:06:48.693Z,0.26
2023-03-03T08:12:19.824Z,0.33
2023-03-03T08:17:24.617Z,0.37
2023-03-03T08:22:36.268Z,0.45
2023-03-03T08:27:38.057Z,0.52
2023-03-03T08:32:39.995Z,0.65
2023-03-03T08:37:42.209Z,0.72
2023-03-03T08:42:44.066Z,0.75
2023-03-03T08:47:46.054Z,0.86
2023-03-03T08:52:48.433Z,0.97
2023-03-03T08:57:50.619Z,1.05
2023-03-03T09:02:53.236Z,1.15
2023-03-03T09:07:55.913Z,1.34
2023-03-03T09:13:02.545Z,1.45
2023-03-03T09:18:20.150Z,1.56
2023-03-03T09:23:42.918Z,1.64
2023-03-03T09:28:45.013Z,1.69
2023-03-03T09:33:55.192Z,1.63
2023-03-03T09:38:57.767Z,1.70
2023-03-03T09:44:06.101Z,1.75
2023-03-03T09:49:59.664Z,1.81
2023-03-03T09:55:27.556Z,1.86
2023-03-03T10:00:41.334Z,1.94
2023-03-03T10:05:58.998Z,1.86
2023-03-03T10:11:41.825Z,1.87
2023-03-03T10:16:54.166Z,1.98
2023-03-03T10:22:06.128Z,2.05
2023-03-03T10:27:54.669Z,2.05
2023-03-03T10:33:05.472Z,2.03
2023-03-03T10:38:19.301Z,2.09
2023-03-03T10:43:36.733Z,2.14
2023-03-03T10:49:30.101Z,2.11
2023-03-03T10:54:56.442Z,2.04
2023-03-03T11:00:20.660Z,1.88
2023-03-03T11:05:35.049Z,1.84
2023-03-03T11:10:58.732Z,1.91
2023-03-03T11:16:21.722Z,1.98
2023-03-03T11:21:34.229Z,1.99
2023-03-03T11:26:51.634Z,2.02
2023-03-03T11:32:00.398Z,2.05
2023-03-03T11:37:08.715Z,2.02
2023-03-03T11:42:29.941Z,2.03
2023-03-03T11:47:56.850Z,2.11
2023-03-03T11:53:27.265Z,2.23
2023-03-03T11:58:40.352Z,2.35
2023-03-03T12:03:53.608Z,2.47
2023-03-03T12:09:17.736Z,2.51
2023-03-03T12:14:57.631Z,2.58
2023-03-03T12:20:25.820Z,2.65
2023-03-03T12:25:42.788Z,2.81
2023-03-03T12:31:06.776Z,2.91
2023-03-03T12:36:21.470Z,2.94
2023-03-03T12:41:37.130Z,2.89
2023-03-03T12:47:02.321Z,2.78
2023-03-03T12:52:29.046Z,2.80
2023-03-03T12:57:52.157Z,2.93
2023-03-03T13:03:06.622Z,2.97
2023-03-03T13:08:12.112Z,2.88
2023-03-03T13:13:37.561Z,2.80
2023-03-03T13:18:51.692Z,2.81
2023-03-03T13:24:19.178Z,2.96
2023-03-03T13:29:27.108Z,3.04
2023-03-03T13:35:03.429Z,3.00
2023-03-03T13:40:19.469Z,2.99
2023-03-03T13:45:50.352Z,3.00
2023-03-03T13:51:15.681Z,3.10
2023-03-03T13:56:20.623Z,3.07
2023-03-03T14:01:53.996Z,3.00
2023-03-03T14:07:03.744Z,2.96
2023-03-03T14:12:21.919Z,3.00
2023-03-03T14:17:34.651Z,2.97
2023-03-03T14:22:46.123Z,3.00
2023-03-03T14:27:48.425Z,3.05
2023-03-03T14:33:08.924Z,3.07
2023-03-03T14:38:24.280Z,3.02
2023-03-03T14:43:33.715Z,3.01
2023-03-03T14:48:51.076Z,2.98
2023-03-03T14:53:53.930Z,2.94
2023-03-03T14:59:14.721Z,2.88
2023-03-03T15:04:20.362Z,2.74
2023-03-03T15:09:48.991Z,2.62
2023-03-03T15:15:05.860Z,2.43
2023-03-03T15:20:43.863Z,2.39
2023-03-03T15:26:01.313Z,2.30
2023-03-03T15:31:15.360Z,2.30
2023-03-03T15:36:41.336Z,2.33
2023-03-03T15:41:43.422Z,2.32
2023-03-03T15:46:52.271Z,2.25
2023-03-03T15:52:22.637Z,2.17
2023-03-03T15:57:45.790Z,2.13
2023-03-03T16:02:58.720Z,2.06
2023-03-03T16:08:22.707Z,2.10
2023-03-03T16:13:36.359Z,2.14
2023-03-03T16:18:59.420Z,2.15
2023-03-03T16:24:29.146Z,2.06
2023-03-03T16:29:36.286Z,2.01
2023-03-03T16:34:54.720Z,1.95
2023-03-03T16:40:10.023Z,1.88
2023-03-03T16:45:26.779Z,1.87
2023-03-03T16:50:54.398Z,1.85
2023-03-03T16:56:18.847Z,1.90
2023-03-03T17:01:48.988Z,1.98
2023-03-03T17:06:55.514Z,2.05
2023-03-03T17:12:01.619Z,2.03
2023-03-03T17:17:26.689Z,1.95
2023-03-03T17:23:06.471Z,1.89
2023-03-03T17:28:29.120Z,1.78
2023-03-03T17:33:35.095Z,1.78
2023-03-03T17:38:51.050Z,1.82
2023-03-03T17:44:18.080Z,1.74
2023-03-03T17:49:59.363Z,1.70
2023-03-03T17:55:42.937Z,1.71
2023-03-03T18:01:00.672Z,1.75
2023-03-03T18:06:24.251Z,1.80
2023-03-03T18:11:52.763Z,1.91
2023-03-03T18:17:05.606Z,1.98
2023-03-03T18:22:14.080Z,2.05
2023-03-03T18:27:25.882Z,2.10
2023-03-03T18:32:41.850Z,2.19
2023-03-03T18:37:45.609Z,2.12
2023-03-03T18:42:49.942Z,2.11
2023-03-03T18:48:01.606Z,2.10
2023-03-03T18:53:15.886Z,2.11
2023-03-03T18:58:21.182Z,2.18
2023-03-03T19:03:29.848Z,2.17
2023-03-03T19:08:53.936Z,2.14
2023-03-03T19:14:15.351Z,2.06
2023-03-03T19:19:20.265Z,2.14
2023-03-03T19:25:01.544Z,2.17
2023-03-03T19:30:27.017Z,2.21
2023-03-03T19:35:37.871Z,2.15
2023-03-03T19:41:00.769Z,2.12
2023-03-03T19:46:13.290Z,2.06
2023-03-03T19:51:25.312Z,2.01
2023-03-03T19:56:47.447Z,2.00
2023-03-03T20:02:12.701Z,1.99
2023-03-03T20:08:00.035Z,1.97
2023-03-03T20:13:24.482Z,2.02
2023-03-03T20:18:42.240Z,2.03
2023-03-03T20:24:06.902Z,2.01
2023-03-03T20:29:26.147Z,2.07
2023-03-03T20:34:41.588Z,2.12
2023-03-03T20:39:43.888Z,2.16
2023-03-03T20:45:09.810Z,2.11
2023-03-03T20:50:26.131Z,1.97
2023-03-03T20:55:57.588Z,1.91
2023-03-03T21:01:10.494Z,1.91
2023-03-03T21:06:15.698Z,1.92
2023-03-03T21:11:21.304Z,1.91
2023-03-03T21:16:23.224Z,1.96
2023-03-03T21:21:27.744Z,2.01
2023-03-03T21:26:50.170Z,2.03
2023-03-03T21:31:59.462Z,2.11
2023-03-03T21:37:06.911Z,2.17
2023-03-03T21:42:30.496Z,2.15
2023-03-03T21:47:35.615Z,2.13
2023-03-03T21:52:39.044Z,2.13
2023-03-03T21:57:41.941Z,2.06
2023-03-03T22:02:44.156Z,2.08
2023-03-03T22:07:46.690Z,2.10
2023-03-03T22:12:53.945Z,2.13
2023-03-03T22:18:02.659Z,2.18
2023-03-03T22:23:05.199Z,2.23
2023-03-03T22:28:07.853Z,2.28
2023-03-03T22:33:10.424Z,2.27
2023-03-03T22:38:12.543Z,2.26
2023-03-03T22:43:21.958Z,2.29
2023-03-03T22:48:26.754Z,2.24
2023-03-03T22:53:32.770Z,2.18
2023-03-03T22:58:34.780Z,2.13
2023-03-03T23:03:37.310Z,2.13
2023-03-03T23:08:39.501Z,2.15
2023-03-03T23:13:41.670Z,2.01
2023-03-03T23:18:43.821Z,2.00
2023-03-03T23:23:46.229Z,2.01
2023-03-03T23:28:48.326Z,1.99
2023-03-03T23:33:50.408Z,2.01
2023-03-03T23:38:52.518Z,2.02
2023-03-03T23:43:54.461Z,2.05
2023-03-03T23:48:56.683Z,2.07
2023-03-03T23:53:59.416Z,2.05
2023-03-03T23:59:01.618Z,2.08
